sensor_id;sensor_type;location;lat;lon;timestamp;P1;durP1;ratioP1;P2;durP2;ratioP2
19213;SDS011;9741;51.020;5.304;2023-06-14T00:02:29;5.40;;;1.67;;
19213;SDS011;9741;51.020;5.304;2023-06-14T00:04:59;2.90;;;1.80;;
19213;SDS011;9741;51.020;5.304;2023-06-14T00:07:37;1.77;;;1.38;;
19213;SDS011;9741;51.020;5.304;2023-06-14T00:10:18;1.40;;;1.30;;
19213;SDS011;9741;51.020;5.304;2023-06-14T00:12:48;5.90;;;1.90;;
19213;SDS011;9741;51.020;5.304;2023-06-14T00:15:19;1.20;;;1.20;;
19213;SDS011;9741;51.020;5.304;2023-06-14T00:17:57;3.22;;;1.98;;
19213;SDS011;9741;51.020;5.304;2023-06-14T00:20:34;1.25;;;1.00;;
19213;SDS011;9741;51.020;5.304;2023-06-14T00:23:08;3.15;;;2.00;;
19213;SDS011;9741;51.020;5.304;2023-06-14T00:25:41;3.25;;;2.08;;
19213;SDS011;9741;51.020;5.304;2023-06-14T00:28:09;5.90;;;1.73;;
19213;SDS011;9741;51.020;5.304;2023-06-14T00:30:40;2.53;;;1.48;;
19213;SDS011;9741;51.020;5.304;2023-06-14T00:33:09;3.72;;;1.55;;
19213;SDS011;9741;51.020;5.304;2023-06-14T00:35:45;2.58;;;1.73;;
19213;SDS011;9741;51.020;5.304;2023-06-14T00:38:16;1.55;;;1.45;;
19213;SDS011;9741;51.020;5.304;2023-06-14T00:40:50;2.17;;;1.75;;
19213;SDS011;9741;51.020;5.304;2023-06-14T00:43:24;2.05;;;1.83;;
19213;SDS011;9741;51.020;5.304;2023-06-14T00:46:02;2.85;;;1.63;;
19213;SDS011;9741;51.020;5.304;2023-06-14T00:48:31;2.45;;;1.58;;
19213;SDS011;9741;51.020;5.304;2023-06-14T00:51:02;1.92;;;1.52;;
19213;SDS011;9741;51.020;5.304;2023-06-14T00:53:39;1.67;;;1.42;;
19213;SDS011;9741;51.020;5.304;2023-06-14T00:56:18;2.08;;;1.90;;
19213;SDS011;9741;51.020;5.304;2023-06-14T00:58:48;2.90;;;2.10;;
19213;SDS011;9741;51.020;5.304;2023-06-14T01:01:25;1.75;;;1.35;;
19213;SDS011;9741;51.020;5.304;2023-06-14T01:03:58;0.63;;;0.60;;
19213;SDS011;9741;51.020;5.304;2023-06-14T01:06:36;1.92;;;1.35;;
19213;SDS011;9741;51.020;5.304;2023-06-14T01:09:22;2.42;;;1.73;;
19213;SDS011;9741;51.020;5.304;2023-06-14T01:12:19;3.08;;;1.30;;
19213;SDS011;9741;51.020;5.304;2023-06-14T01:14:56;2.45;;;1.55;;
19213;SDS011;9741;51.020;5.304;2023-06-14T01:17:29;2.25;;;1.63;;
19213;SDS011;9741;51.020;5.304;2023-06-14T01:20:02;1.45;;;1.35;;
19213;SDS011;9741;51.020;5.304;2023-06-14T01:22:35;3.90;;;1.85;;
19213;SDS011;9741;51.020;5.304;2023-06-14T01:25:09;1.73;;;1.60;;
19213;SDS011;9741;51.020;5.304;2023-06-14T01:27:47;4.00;;;2.13;;
19213;SDS011;9741;51.020;5.304;2023-06-14T01:30:17;1.67;;;1.58;;
19213;SDS011;9741;51.020;5.304;2023-06-14T01:32:50;1.58;;;1.48;;
19213;SDS011;9741;51.020;5.304;2023-06-14T01:35:23;2.28;;;1.42;;
19213;SDS011;9741;51.020;5.304;2023-06-14T01:37:55;2.20;;;1.83;;
19213;SDS011;9741;51.020;5.304;2023-06-14T01:40:31;3.33;;;1.95;;
19213;SDS011;9741;51.020;5.304;2023-06-14T01:43:05;2.88;;;2.30;;
19213;SDS011;9741;51.020;5.304;2023-06-14T01:45:34;2.45;;;2.10;;
19213;SDS011;9741;51.020;5.304;2023-06-14T01:48:10;2.15;;;1.65;;
19213;SDS011;9741;51.020;5.304;2023-06-14T01:50:42;1.83;;;1.73;;
19213;SDS011;9741;51.020;5.304;2023-06-14T01:53:12;2.85;;;2.05;;
19213;SDS011;9741;51.020;5.304;2023-06-14T01:55:41;5.03;;;2.58;;
19213;SDS011;9741;51.020;5.304;2023-06-14T01:58:13;3.33;;;1.63;;
19213;SDS011;9741;51.020;5.304;2023-06-14T02:00:55;3.30;;;2.03;;
19213;SDS011;9741;51.020;5.304;2023-06-14T02:03:26;3.05;;;2.05;;
19213;SDS011;9741;51.020;5.304;2023-06-14T02:06:04;2.47;;;2.28;;
19213;SDS011;9741;51.020;5.304;2023-06-14T02:08:45;1.90;;;1.77;;
19213;SDS011;9741;51.020;5.304;2023-06-14T02:11:28;4.65;;;2.42;;
19213;SDS011;9741;51.020;5.304;2023-06-14T02:13:56;2.22;;;1.88;;
19213;SDS011;9741;51.020;5.304;2023-06-14T02:16:26;1.65;;;1.52;;
19213;SDS011;9741;51.020;5.304;2023-06-14T02:19:02;2.50;;;1.92;;
19213;SDS011;9741;51.020;5.304;2023-06-14T02:21:37;2.78;;;2.28;;
19213;SDS011;9741;51.020;5.304;2023-06-14T02:24:14;3.63;;;2.08;;
19213;SDS011;9741;51.020;5.304;2023-06-14T02:26:50;3.67;;;2.33;;
19213;SDS011;9741;51.020;5.304;2023-06-14T02:29:27;2.20;;;1.50;;
19213;SDS011;9741;51.020;5.304;2023-06-14T02:32:03;2.38;;;1.83;;
19213;SDS011;9741;51.020;5.304;2023-06-14T02:34:37;2.25;;;2.05;;
19213;SDS011;9741;51.020;5.304;2023-06-14T02:37:07;4.15;;;2.38;;
19213;SDS011;9741;51.020;5.304;2023-06-14T02:39:38;2.53;;;1.98;;
19213;SDS011;9741;51.020;5.304;2023-06-14T02:42:11;3.22;;;2.33;;
19213;SDS011;9741;51.020;5.304;2023-06-14T02:44:43;10.65;;;1.88;;
19213;SDS011;9741;51.020;5.304;2023-06-14T02:47:16;1.63;;;1.48;;
19213;SDS011;9741;51.020;5.304;2023-06-14T02:49:47;1.90;;;1.60;;
19213;SDS011;9741;51.020;5.304;2023-06-14T02:52:15;3.35;;;1.73;;
19213;SDS011;9741;51.020;5.304;2023-06-14T02:54:46;3.28;;;2.47;;
19213;SDS011;9741;51.020;5.304;2023-06-14T02:57:18;2.05;;;1.88;;
19213;SDS011;9741;51.020;5.304;2023-06-14T02:59:49;3.28;;;1.70;;
19213;SDS011;9741;51.020;5.304;2023-06-14T03:02:19;5.10;;;1.67;;
19213;SDS011;9741;51.020;5.304;2023-06-14T03:04:50;3.17;;;2.08;;
19213;SDS011;9741;51.020;5.304;2023-06-14T03:07:22;2.95;;;1.65;;
19213;SDS011;9741;51.020;5.304;2023-06-14T03:09:53;2.13;;;1.48;;
19213;SDS011;9741;51.020;5.304;2023-06-14T03:12:27;1.65;;;1.52;;
19213;SDS011;9741;51.020;5.304;2023-06-14T03:14:55;3.78;;;1.77;;
19213;SDS011;9741;51.020;5.304;2023-06-14T03:20:26;4.22;;;3.22;;
19213;SDS011;9741;51.020;5.304;2023-06-14T03:22:58;7.63;;;2.05;;
19213;SDS011;9741;51.020;5.304;2023-06-14T03:25:29;3.47;;;2.35;;
19213;SDS011;9741;51.020;5.304;2023-06-14T03:28:09;2.40;;;2.20;;
19213;SDS011;9741;51.020;5.304;2023-06-14T03:30:36;2.40;;;2.03;;
19213;SDS011;9741;51.020;5.304;2023-06-14T03:33:07;2.28;;;1.48;;
19213;SDS011;9741;51.020;5.304;2023-06-14T03:35:45;3.97;;;1.95;;
19213;SDS011;9741;51.020;5.304;2023-06-14T03:38:17;2.13;;;1.73;;
19213;SDS011;9741;51.020;5.304;2023-06-14T03:40:44;2.85;;;1.80;;
19213;SDS011;9741;51.020;5.304;2023-06-14T03:43:18;2.25;;;1.63;;
19213;SDS011;9741;51.020;5.304;2023-06-14T03:45:49;4.05;;;2.72;;
19213;SDS011;9741;51.020;5.304;2023-06-14T03:48:20;3.90;;;2.17;;
19213;SDS011;9741;51.020;5.304;2023-06-14T03:50:51;4.18;;;2.17;;
19213;SDS011;9741;51.020;5.304;2023-06-14T03:53:24;1.30;;;1.20;;
19213;SDS011;9741;51.020;5.304;2023-06-14T03:55:55;3.72;;;2.03;;
19213;SDS011;9741;51.020;5.304;2023-06-14T03:58:36;9.95;;;2.00;;
19213;SDS011;9741;51.020;5.304;2023-06-14T04:01:11;4.47;;;2.05;;
19213;SDS011;9741;51.020;5.304;2023-06-14T04:03:41;2.63;;;1.63;;
19213;SDS011;9741;51.020;5.304;2023-06-14T04:06:09;2.90;;;1.77;;
19213;SDS011;9741;51.020;5.304;2023-06-14T04:08:46;2.28;;;1.45;;
19213;SDS011;9741;51.020;5.304;2023-06-14T04:11:15;7.53;;;2.67;;
19213;SDS011;9741;51.020;5.304;2023-06-14T04:13:51;5.65;;;2.25;;
19213;SDS011;9741;51.020;5.304;2023-06-14T04:16:26;3.88;;;1.67;;
19213;SDS011;9741;51.020;5.304;2023-06-14T04:18:55;2.00;;;1.48;;
19213;SDS011;9741;51.020;5.304;2023-06-14T04:21:26;2.47;;;1.73;;
19213;SDS011;9741;51.020;5.304;2023-06-14T04:23:54;2.75;;;2.33;;
19213;SDS011;9741;51.020;5.304;2023-06-14T04:26:27;4.43;;;2.47;;
19213;SDS011;9741;51.020;5.304;2023-06-14T04:29:02;3.65;;;2.05;;
19213;SDS011;9741;51.020;5.304;2023-06-14T04:31:31;7.00;;;2.40;;
19213;SDS011;9741;51.020;5.304;2023-06-14T04:34:08;1.75;;;1.65;;
19213;SDS011;9741;51.020;5.304;2023-06-14T04:36:42;2.13;;;1.63;;
19213;SDS011;9741;51.020;5.304;2023-06-14T04:39:15;3.83;;;1.90;;
19213;SDS011;9741;51.020;5.304;2023-06-14T04:41:53;2.70;;;1.83;;
19213;SDS011;9741;51.020;5.304;2023-06-14T04:44:32;3.70;;;2.13;;
19213;SDS011;9741;51.020;5.304;2023-06-14T04:47:19;2.38;;;2.08;;
19213;SDS011;9741;51.020;5.304;2023-06-14T04:49:48;3.13;;;2.22;;
19213;SDS011;9741;51.020;5.304;2023-06-14T04:52:20;2.83;;;1.83;;
19213;SDS011;9741;51.020;5.304;2023-06-14T04:54:48;6.20;;;2.47;;
19213;SDS011;9741;51.020;5.304;2023-06-14T04:57:26;3.90;;;1.70;;
19213;SDS011;9741;51.020;5.304;2023-06-14T05:00:13;3.88;;;2.03;;
19213;SDS011;9741;51.020;5.304;2023-06-14T05:02:43;2.33;;;1.88;;
19213;SDS011;9741;51.020;5.304;2023-06-14T05:05:12;2.22;;;1.92;;
19213;SDS011;9741;51.020;5.304;2023-06-14T05:07:43;4.68;;;2.35;;
19213;SDS011;9741;51.020;5.304;2023-06-14T05:10:13;1.75;;;1.63;;
19213;SDS011;9741;51.020;5.304;2023-06-14T05:12:43;3.00;;;1.88;;
19213;SDS011;9741;51.020;5.304;2023-06-14T05:15:17;5.00;;;2.75;;
19213;SDS011;9741;51.020;5.304;2023-06-14T05:17:45;4.65;;;1.95;;
19213;SDS011;9741;51.020;5.304;2023-06-14T05:20:21;4.45;;;2.22;;
19213;SDS011;9741;51.020;5.304;2023-06-14T05:22:52;2.30;;;2.10;;
19213;SDS011;9741;51.020;5.304;2023-06-14T05:25:25;1.98;;;1.60;;
19213;SDS011;9741;51.020;5.304;2023-06-14T05:28:07;3.33;;;1.80;;
19213;SDS011;9741;51.020;5.304;2023-06-14T05:30:37;2.47;;;2.03;;
19213;SDS011;9741;51.020;5.304;2023-06-14T05:33:10;3.53;;;2.33;;
19213;SDS011;9741;51.020;5.304;2023-06-14T05:35:40;3.67;;;2.28;;
19213;SDS011;9741;51.020;5.304;2023-06-14T05:38:14;3.10;;;2.50;;
19213;SDS011;9741;51.020;5.304;2023-06-14T05:40:44;5.15;;;2.35;;
19213;SDS011;9741;51.020;5.304;2023-06-14T05:43:14;10.07;;;2.53;;
19213;SDS011;9741;51.020;5.304;2023-06-14T05:45:47;3.17;;;1.98;;
19213;SDS011;9741;51.020;5.304;2023-06-14T05:48:18;2.42;;;2.15;;
19213;SDS011;9741;51.020;5.304;2023-06-14T05:50:52;3.20;;;2.30;;
19213;SDS011;9741;51.020;5.304;2023-06-14T05:53:22;2.35;;;2.00;;
19213;SDS011;9741;51.020;5.304;2023-06-14T05:56:00;3.95;;;2.08;;
19213;SDS011;9741;51.020;5.304;2023-06-14T05:58:28;2.78;;;2.53;;
19213;SDS011;9741;51.020;5.304;2023-06-14T06:00:59;2.95;;;2.08;;
19213;SDS011;9741;51.020;5.304;2023-06-14T06:03:30;3.10;;;2.28;;
19213;SDS011;9741;51.020;5.304;2023-06-14T06:06:00;2.67;;;2.28;;
19213;SDS011;9741;51.020;5.304;2023-06-14T06:08:29;3.65;;;2.08;;
19213;SDS011;9741;51.020;5.304;2023-06-14T06:10:59;2.10;;;1.83;;
19213;SDS011;9741;51.020;5.304;2023-06-14T06:13:29;3.08;;;2.35;;
19213;SDS011;9741;51.020;5.304;2023-06-14T06:16:06;3.60;;;2.78;;
19213;SDS011;9741;51.020;5.304;2023-06-14T06:18:36;2.08;;;1.45;;
19213;SDS011;9741;51.020;5.304;2023-06-14T06:21:06;2.20;;;1.92;;
19213;SDS011;9741;51.020;5.304;2023-06-14T06:23:44;3.38;;;2.50;;
19213;SDS011;9741;51.020;5.304;2023-06-14T06:26:14;3.25;;;2.35;;
19213;SDS011;9741;51.020;5.304;2023-06-14T06:28:53;2.40;;;2.20;;
19213;SDS011;9741;51.020;5.304;2023-06-14T06:31:27;1.70;;;1.48;;
19213;SDS011;9741;51.020;5.304;2023-06-14T06:33:59;2.50;;;2.22;;
19213;SDS011;9741;51.020;5.304;2023-06-14T06:36:35;2.55;;;1.95;;
19213;SDS011;9741;51.020;5.304;2023-06-14T06:39:03;2.10;;;1.95;;
19213;SDS011;9741;51.020;5.304;2023-06-14T06:41:37;2.40;;;2.20;;
19213;SDS011;9741;51.020;5.304;2023-06-14T06:44:13;3.83;;;2.17;;
19213;SDS011;9741;51.020;5.304;2023-06-14T06:46:57;2.75;;;2.45;;
19213;SDS011;9741;51.020;5.304;2023-06-14T06:49:29;1.80;;;1.60;;
19213;SDS011;9741;51.020;5.304;2023-06-14T06:52:01;2.08;;;1.65;;
19213;SDS011;9741;51.020;5.304;2023-06-14T06:54:31;2.58;;;1.98;;
19213;SDS011;9741;51.020;5.304;2023-06-14T06:57:08;2.67;;;1.77;;
19213;SDS011;9741;51.020;5.304;2023-06-14T06:59:37;6.88;;;2.58;;
19213;SDS011;9741;51.020;5.304;2023-06-14T07:02:11;3.80;;;2.50;;
19213;SDS011;9741;51.020;5.304;2023-06-14T07:04:42;2.70;;;2.50;;
19213;SDS011;9741;51.020;5.304;2023-06-14T07:07:11;2.35;;;1.90;;
19213;SDS011;9741;51.020;5.304;2023-06-14T07:09:48;3.05;;;1.95;;
19213;SDS011;9741;51.020;5.304;2023-06-14T07:12:18;1.58;;;1.48;;
19213;SDS011;9741;51.020;5.304;2023-06-14T07:14:47;2.25;;;2.05;;
19213;SDS011;9741;51.020;5.304;2023-06-14T07:17:19;1.63;;;1.52;;
19213;SDS011;9741;51.020;5.304;2023-06-14T07:19:54;2.03;;;1.80;;
19213;SDS011;9741;51.020;5.304;2023-06-14T07:22:37;2.40;;;1.73;;
19213;SDS011;9741;51.020;5.304;2023-06-14T07:25:14;2.95;;;2.60;;
19213;SDS011;9741;51.020;5.304;2023-06-14T07:27:47;2.40;;;1.45;;
19213;SDS011;9741;51.020;5.304;2023-06-14T07:30:16;4.07;;;2.10;;
19213;SDS011;9741;51.020;5.304;2023-06-14T07:32:49;5.05;;;1.98;;
19213;SDS011;9741;51.020;5.304;2023-06-14T07:35:22;2.60;;;1.48;;
19213;SDS011;9741;51.020;5.304;2023-06-14T07:37:53;4.55;;;1.85;;
19213;SDS011;9741;51.020;5.304;2023-06-14T07:40:23;1.23;;;1.13;;
19213;SDS011;9741;51.020;5.304;2023-06-14T07:42:53;2.50;;;2.00;;
19213;SDS011;9741;51.020;5.304;2023-06-14T07:45:20;2.55;;;1.92;;
19213;SDS011;9741;51.020;5.304;2023-06-14T07:47:53;2.35;;;1.83;;
19213;SDS011;9741;51.020;5.304;2023-06-14T07:50:22;1.98;;;1.55;;
19213;SDS011;9741;51.020;5.304;2023-06-14T07:52:53;1.88;;;1.67;;
19213;SDS011;9741;51.020;5.304;2023-06-14T07:55:23;2.58;;;2.10;;
19213;SDS011;9741;51.020;5.304;2023-06-14T07:58:01;1.95;;;1.60;;
19213;SDS011;9741;51.020;5.304;2023-06-14T08:00:32;1.70;;;1.48;;
19213;SDS011;9741;51.020;5.304;2023-06-14T08:03:08;1.33;;;1.23;;
19213;SDS011;9741;51.020;5.304;2023-06-14T08:05:36;2.40;;;1.92;;
19213;SDS011;9741;51.020;5.304;2023-06-14T08:08:04;1.83;;;1.65;;
19213;SDS011;9741;51.020;5.304;2023-06-14T08:10:35;1.30;;;1.20;;
19213;SDS011;9741;51.020;5.304;2023-06-14T08:13:03;2.33;;;1.92;;
19213;SDS011;9741;51.020;5.304;2023-06-14T08:15:35;1.38;;;1.25;;
19213;SDS011;9741;51.020;5.304;2023-06-14T08:18:04;1.58;;;1.48;;
19213;SDS011;9741;51.020;5.304;2023-06-14T08:20:49;2.45;;;1.65;;
19213;SDS011;9741;51.020;5.304;2023-06-14T08:23:19;1.73;;;1.63;;
19213;SDS011;9741;51.020;5.304;2023-06-14T08:25:50;1.63;;;1.45;;
19213;SDS011;9741;51.020;5.304;2023-06-14T08:28:33;1.63;;;1.50;;
19213;SDS011;9741;51.020;5.304;2023-06-14T08:31:01;2.50;;;1.80;;
19213;SDS011;9741;51.020;5.304;2023-06-14T08:33:33;2.17;;;1.40;;
19213;SDS011;9741;51.020;5.304;2023-06-14T08:36:04;1.38;;;1.25;;
19213;SDS011;9741;51.020;5.304;2023-06-14T08:38:45;1.70;;;1.42;;
19213;SDS011;9741;51.020;5.304;2023-06-14T08:41:20;13.82;;;1.80;;
19213;SDS011;9741;51.020;5.304;2023-06-14T08:43:50;1.98;;;1.30;;
19213;SDS011;9741;51.020;5.304;2023-06-14T08:46:20;1.70;;;1.58;;
19213;SDS011;9741;51.020;5.304;2023-06-14T08:48:55;2.17;;;1.15;;
19213;SDS011;9741;51.020;5.304;2023-06-14T08:51:25;2.33;;;1.65;;
19213;SDS011;9741;51.020;5.304;2023-06-14T08:54:00;2.15;;;1.42;;
19213;SDS011;9741;51.020;5.304;2023-06-14T08:56:31;5.47;;;1.33;;
19213;SDS011;9741;51.020;5.304;2023-06-14T08:58:59;2.78;;;1.88;;
19213;SDS011;9741;51.020;5.304;2023-06-14T09:01:37;1.70;;;0.82;;
19213;SDS011;9741;51.020;5.304;2023-06-14T09:04:22;1.60;;;0.93;;
19213;SDS011;9741;51.020;5.304;2023-06-14T09:06:54;1.55;;;1.20;;
19213;SDS011;9741;51.020;5.304;2023-06-14T09:09:24;3.78;;;1.33;;
19213;SDS011;9741;51.020;5.304;2023-06-14T09:11:54;0.80;;;0.80;;
19213;SDS011;9741;51.020;5.304;2023-06-14T09:14:24;5.05;;;1.55;;
19213;SDS011;9741;51.020;5.304;2023-06-14T09:16:54;1.85;;;1.05;;
19213;SDS011;9741;51.020;5.304;2023-06-14T09:19:25;1.30;;;1.17;;
19213;SDS011;9741;51.020;5.304;2023-06-14T09:22:05;1.35;;;1.25;;
19213;SDS011;9741;51.020;5.304;2023-06-14T09:24:38;2.65;;;1.48;;
19213;SDS011;9741;51.020;5.304;2023-06-14T09:27:14;1.80;;;1.27;;
19213;SDS011;9741;51.020;5.304;2023-06-14T09:29:47;1.25;;;1.13;;
19213;SDS011;9741;51.020;5.304;2023-06-14T09:32:17;1.50;;;1.10;;
19213;SDS011;9741;51.020;5.304;2023-06-14T09:34:51;2.83;;;1.75;;
19213;SDS011;9741;51.020;5.304;2023-06-14T09:37:35;1.35;;;1.20;;
19213;SDS011;9741;51.020;5.304;2023-06-14T09:40:20;1.80;;;1.23;;
19213;SDS011;9741;51.020;5.304;2023-06-14T09:42:50;3.60;;;1.27;;
19213;SDS011;9741;51.020;5.304;2023-06-14T09:45:23;1.77;;;1.23;;
19213;SDS011;9741;51.020;5.304;2023-06-14T09:47:59;3.47;;;1.35;;
19213;SDS011;9741;51.020;5.304;2023-06-14T09:50:33;1.52;;;1.20;;
19213;SDS011;9741;51.020;5.304;2023-06-14T09:53:03;0.68;;;0.68;;
19213;SDS011;9741;51.020;5.304;2023-06-14T09:55:37;0.90;;;0.80;;
19213;SDS011;9741;51.020;5.304;2023-06-14T09:58:11;2.65;;;1.48;;
19213;SDS011;9741;51.020;5.304;2023-06-14T10:00:47;1.75;;;1.27;;
19213;SDS011;9741;51.020;5.304;2023-06-14T10:03:19;1.77;;;1.15;;
19213;SDS011;9741;51.020;5.304;2023-06-14T10:05:57;1.13;;;1.02;;
19213;SDS011;9741;51.020;5.304;2023-06-14T10:08:32;1.00;;;0.80;;
19213;SDS011;9741;51.020;5.304;2023-06-14T10:11:02;1.80;;;1.50;;
19213;SDS011;9741;51.020;5.304;2023-06-14T10:13:33;1.00;;;0.90;;
19213;SDS011;9741;51.020;5.304;2023-06-14T10:16:12;0.88;;;0.80;;
19213;SDS011;9741;51.020;5.304;2023-06-14T10:18:51;1.00;;;0.88;;
19213;SDS011;9741;51.020;5.304;2023-06-14T10:21:32;0.88;;;0.70;;
19213;SDS011;9741;51.020;5.304;2023-06-14T10:24:18;0.80;;;0.80;;
19213;SDS011;9741;51.020;5.304;2023-06-14T10:26:56;1.77;;;1.00;;
19213;SDS011;9741;51.020;5.304;2023-06-14T10:29:25;2.85;;;0.68;;
19213;SDS011;9741;51.020;5.304;2023-06-14T10:32:00;0.52;;;0.52;;
19213;SDS011;9741;51.020;5.304;2023-06-14T10:34:30;1.08;;;0.90;;
19213;SDS011;9741;51.020;5.304;2023-06-14T10:40:02;1.08;;;0.70;;
19213;SDS011;9741;51.020;5.304;2023-06-14T10:42:33;1.02;;;0.82;;
19213;SDS011;9741;51.020;5.304;2023-06-14T10:45:05;0.40;;;0.40;;
19213;SDS011;9741;51.020;5.304;2023-06-14T10:48:02;0.88;;;0.60;;
19213;SDS011;9741;51.020;5.304;2023-06-14T10:50:30;0.75;;;0.57;;
19213;SDS011;9741;51.020;5.304;2023-06-14T10:53:03;2.25;;;0.60;;
19213;SDS011;9741;51.020;5.304;2023-06-14T10:55:52;0.73;;;0.60;;
19213;SDS011;9741;51.020;5.304;2023-06-14T10:58:21;1.63;;;0.77;;
19213;SDS011;9741;51.020;5.304;2023-06-14T11:01:02;0.40;;;0.30;;
19213;SDS011;9741;51.020;5.304;2023-06-14T11:03:50;0.45;;;0.43;;
19213;SDS011;9741;51.020;5.304;2023-06-14T11:06:22;0.52;;;0.52;;
19213;SDS011;9741;51.020;5.304;2023-06-14T11:12:13;0.57;;;0.57;;
19213;SDS011;9741;51.020;5.304;2023-06-14T11:14:47;0.57;;;0.57;;
19213;SDS011;9741;51.020;5.304;2023-06-14T11:17:18;0.40;;;0.40;;
19213;SDS011;9741;51.020;5.304;2023-06-14T11:19:48;0.35;;;0.35;;
19213;SDS011;9741;51.020;5.304;2023-06-14T11:22:16;1.23;;;0.93;;
19213;SDS011;9741;51.020;5.304;2023-06-14T11:24:44;0.50;;;0.50;;
19213;SDS011;9741;51.020;5.304;2023-06-14T11:27:13;0.70;;;0.50;;
19213;SDS011;9741;51.020;5.304;2023-06-14T11:29:51;0.63;;;0.60;;
19213;SDS011;9741;51.020;5.304;2023-06-14T11:32:20;0.30;;;0.30;;
19213;SDS011;9741;51.020;5.304;2023-06-14T11:34:51;0.73;;;0.50;;
19213;SDS011;9741;51.020;5.304;2023-06-14T11:37:25;0.95;;;0.50;;
19213;SDS011;9741;51.020;5.304;2023-06-14T11:39:56;0.43;;;0.43;;
19213;SDS011;9741;51.020;5.304;2023-06-14T11:42:31;1.88;;;0.93;;
19213;SDS011;9741;51.020;5.304;2023-06-14T11:44:58;0.77;;;0.60;;
19213;SDS011;9741;51.020;5.304;2023-06-14T11:47:31;0.70;;;0.60;;
19213;SDS011;9741;51.020;5.304;2023-06-14T11:50:01;1.75;;;0.68;;
19213;SDS011;9741;51.020;5.304;2023-06-14T11:52:30;6.03;;;0.73;;
19213;SDS011;9741;51.020;5.304;2023-06-14T11:55:01;0.82;;;0.45;;
19213;SDS011;9741;51.020;5.304;2023-06-14T11:57:42;0.95;;;0.60;;
19213;SDS011;9741;51.020;5.304;2023-06-14T12:00:11;0.47;;;0.47;;
19213;SDS011;9741;51.020;5.304;2023-06-14T12:02:42;0.35;;;0.35;;
19213;SDS011;9741;51.020;5.304;2023-06-14T12:05:23;0.55;;;0.45;;
19213;SDS011;9741;51.020;5.304;2023-06-14T12:07:57;0.30;;;0.25;;
19213;SDS011;9741;51.020;5.304;2023-06-14T12:10:29;2.47;;;0.70;;
19213;SDS011;9741;51.020;5.304;2023-06-14T12:13:11;0.22;;;0.22;;
19213;SDS011;9741;51.020;5.304;2023-06-14T12:15:38;0.52;;;0.50;;
19213;SDS011;9741;51.020;5.304;2023-06-14T12:18:09;0.77;;;0.73;;
19213;SDS011;9741;51.020;5.304;2023-06-14T12:20:38;0.70;;;0.70;;
19213;SDS011;9741;51.020;5.304;2023-06-14T12:23:06;0.38;;;0.38;;
19213;SDS011;9741;51.020;5.304;2023-06-14T12:25:35;0.80;;;0.80;;
19213;SDS011;9741;51.020;5.304;2023-06-14T12:28:06;2.80;;;0.68;;
19213;SDS011;9741;51.020;5.304;2023-06-14T12:30:40;0.95;;;0.40;;
19213;SDS011;9741;51.020;5.304;2023-06-14T12:33:09;2.85;;;0.60;;
19213;SDS011;9741;51.020;5.304;2023-06-14T12:35:41;0.65;;;0.63;;
19213;SDS011;9741;51.020;5.304;2023-06-14T12:38:11;0.57;;;0.55;;
19213;SDS011;9741;51.020;5.304;2023-06-14T12:40:42;0.30;;;0.30;;
19213;SDS011;9741;51.020;5.304;2023-06-14T12:43:20;0.30;;;0.30;;
19213;SDS011;9741;51.020;5.304;2023-06-14T12:45:53;1.35;;;0.65;;
19213;SDS011;9741;51.020;5.304;2023-06-14T12:48:21;3.75;;;0.90;;
19213;SDS011;9741;51.020;5.304;2023-06-14T12:50:52;0.40;;;0.40;;
19213;SDS011;9741;51.020;5.304;2023-06-14T12:53:25;1.65;;;0.77;;
19213;SDS011;9741;51.020;5.304;2023-06-14T12:55:58;0.47;;;0.30;;
19213;SDS011;9741;51.020;5.304;2023-06-14T12:58:35;9.30;;;1.30;;
19213;SDS011;9741;51.020;5.304;2023-06-14T13:01:09;0.40;;;0.40;;
19213;SDS011;9741;51.020;5.304;2023-06-14T13:03:36;0.70;;;0.70;;
19213;SDS011;9741;51.020;5.304;2023-06-14T13:06:04;2.03;;;1.13;;
19213;SDS011;9741;51.020;5.304;2023-06-14T13:08:41;0.43;;;0.43;;
19213;SDS011;9741;51.020;5.304;2023-06-14T13:11:09;0.95;;;0.60;;
19213;SDS011;9741;51.020;5.304;2023-06-14T13:13:39;0.40;;;0.40;;
19213;SDS011;9741;51.020;5.304;2023-06-14T13:16:12;0.60;;;0.60;;
19213;SDS011;9741;51.020;5.304;2023-06-14T13:18:40;1.20;;;0.65;;
19213;SDS011;9741;51.020;5.304;2023-06-14T13:21:10;1.55;;;1.10;;
19213;SDS011;9741;51.020;5.304;2023-06-14T13:23:37;0.68;;;0.68;;
19213;SDS011;9741;51.020;5.304;2023-06-14T13:26:08;0.30;;;0.30;;
19213;SDS011;9741;51.020;5.304;2023-06-14T13:28:36;1.05;;;0.80;;
19213;SDS011;9741;51.020;5.304;2023-06-14T13:31:06;0.50;;;0.50;;
19213;SDS011;9741;51.020;5.304;2023-06-14T13:33:45;0.60;;;0.60;;
19213;SDS011;9741;51.020;5.304;2023-06-14T13:36:13;0.57;;;0.50;;
19213;SDS011;9741;51.020;5.304;2023-06-14T13:38:42;0.98;;;0.75;;
19213;SDS011;9741;51.020;5.304;2023-06-14T13:41:14;0.35;;;0.35;;
19213;SDS011;9741;51.020;5.304;2023-06-14T13:43:44;0.55;;;0.45;;
19213;SDS011;9741;51.020;5.304;2023-06-14T13:46:15;0.68;;;0.68;;
19213;SDS011;9741;51.020;5.304;2023-06-14T13:48:58;2.42;;;0.75;;
19213;SDS011;9741;51.020;5.304;2023-06-14T13:51:31;1.90;;;0.77;;
19213;SDS011;9741;51.020;5.304;2023-06-14T13:54:01;0.73;;;0.50;;
19213;SDS011;9741;51.020;5.304;2023-06-14T13:56:28;0.55;;;0.55;;
19213;SDS011;9741;51.020;5.304;2023-06-14T13:58:58;0.60;;;0.50;;
19213;SDS011;9741;51.020;5.304;2023-06-14T14:01:30;0.50;;;0.50;;
19213;SDS011;9741;51.020;5.304;2023-06-14T14:04:11;2.97;;;0.90;;
19213;SDS011;9741;51.020;5.304;2023-06-14T14:06:40;0.95;;;0.52;;
19213;SDS011;9741;51.020;5.304;2023-06-14T14:09:09;1.45;;;0.80;;
19213;SDS011;9741;51.020;5.304;2023-06-14T14:11:41;0.57;;;0.57;;
19213;SDS011;9741;51.020;5.304;2023-06-14T14:14:11;2.60;;;0.70;;
19213;SDS011;9741;51.020;5.304;2023-06-14T14:16:39;0.30;;;0.30;;
19213;SDS011;9741;51.020;5.304;2023-06-14T14:19:07;1.20;;;0.50;;
19213;SDS011;9741;51.020;5.304;2023-06-14T14:21:38;0.30;;;0.30;;
19213;SDS011;9741;51.020;5.304;2023-06-14T14:24:08;0.40;;;0.40;;
19213;SDS011;9741;51.020;5.304;2023-06-14T14:26:52;0.30;;;0.30;;
19213;SDS011;9741;51.020;5.304;2023-06-14T14:29:26;0.98;;;0.63;;
19213;SDS011;9741;51.020;5.304;2023-06-14T14:31:57;0.85;;;0.50;;
19213;SDS011;9741;51.020;5.304;2023-06-14T14:34:31;0.63;;;0.40;;
19213;SDS011;9741;51.020;5.304;2023-06-14T14:37:00;1.65;;;0.80;;
19213;SDS011;9741;51.020;5.304;2023-06-14T14:39:41;0.32;;;0.32;;
19213;SDS011;9741;51.020;5.304;2023-06-14T14:42:11;0.73;;;0.60;;
19213;SDS011;9741;51.020;5.304;2023-06-14T14:44:42;1.77;;;0.70;;
19213;SDS011;9741;51.020;5.304;2023-06-14T14:47:25;0.52;;;0.52;;
19213;SDS011;9741;51.020;5.304;2023-06-14T14:49:58;0.65;;;0.57;;
19213;SDS011;9741;51.020;5.304;2023-06-14T14:52:35;3.05;;;0.80;;
19213;SDS011;9741;51.020;5.304;2023-06-14T14:55:03;0.32;;;0.25;;
19213;SDS011;9741;51.020;5.304;2023-06-14T14:57:31;1.15;;;0.40;;
19213;SDS011;9741;51.020;5.304;2023-06-14T15:00:03;0.98;;;0.70;;
19213;SDS011;9741;51.020;5.304;2023-06-14T15:02:37;0.80;;;0.50;;
19213;SDS011;9741;51.020;5.304;2023-06-14T15:05:14;0.43;;;0.43;;
19213;SDS011;9741;51.020;5.304;2023-06-14T15:07:42;0.38;;;0.38;;
19213;SDS011;9741;51.020;5.304;2023-06-14T15:10:11;0.30;;;0.30;;
19213;SDS011;9741;51.020;5.304;2023-06-14T15:12:41;4.28;;;0.98;;
19213;SDS011;9741;51.020;5.304;2023-06-14T15:15:09;0.55;;;0.55;;
19213;SDS011;9741;51.020;5.304;2023-06-14T15:17:37;0.65;;;0.47;;
19213;SDS011;9741;51.020;5.304;2023-06-14T15:20:06;0.52;;;0.40;;
19213;SDS011;9741;51.020;5.304;2023-06-14T15:22:43;1.05;;;0.40;;
19213;SDS011;9741;51.020;5.304;2023-06-14T15:25:12;0.40;;;0.40;;
19213;SDS011;9741;51.020;5.304;2023-06-14T15:27:40;0.22;;;0.22;;
19213;SDS011;9741;51.020;5.304;2023-06-14T15:30:07;0.73;;;0.52;;
19213;SDS011;9741;51.020;5.304;2023-06-14T15:32:36;0.50;;;0.50;;
19213;SDS011;9741;51.020;5.304;2023-06-14T15:35:05;0.30;;;0.30;;
19213;SDS011;9741;51.020;5.304;2023-06-14T15:37:37;3.00;;;0.65;;
19213;SDS011;9741;51.020;5.304;2023-06-14T15:40:11;0.75;;;0.50;;
19213;SDS011;9741;51.020;5.304;2023-06-14T15:42:40;0.43;;;0.30;;
19213;SDS011;9741;51.020;5.304;2023-06-14T15:45:12;0.60;;;0.55;;